createdAt,value
2019-06-01T00:02:19.815Z,9.77
2019-06-01T00:04:49.223Z,7.60
2019-06-01T00:07:17.303Z,8.87
2019-06-01T00:09:45.223Z,9.07
2019-06-01T00:12:13.050Z,8.90
2019-06-01T00:14:41.695Z,7.33
2019-06-01T00:17:09.604Z,7.70
2019-06-01T00:19:37.366Z,8.07
2019-06-01T00:22:05.158Z,7.93
2019-06-01T00:24:32.899Z,7.70
2019-06-01T00:27:00.664Z,8.00
2019-06-01T00:29:31.320Z,7.67
2019-06-01T00:31:59.102Z,8.80
2019-06-01T00:34:26.871Z,7.07
2019-06-01T00:36:56.499Z,8.30
2019-06-01T00:39:24.260Z,7.77
2019-06-01T00:41:52.497Z,8.70
2019-06-01T00:44:20.505Z,6.90
2019-06-01T00:46:56.238Z,7.77
2019-06-01T00:49:24.080Z,6.97
2019-06-01T00:51:53.782Z,7.83
2019-06-01T00:54:21.690Z,7.60
2019-06-01T00:56:49.744Z,7.07
2019-06-01T00:59:17.563Z,7.30
2019-06-01T01:01:45.876Z,7.90
2019-06-01T01:04:13.715Z,7.50
2019-06-01T01:06:41.495Z,7.53
2019-06-01T01:09:09.261Z,7.47
2019-06-01T01:11:37.067Z,8.07
2019-06-01T01:14:06.687Z,7.77
2019-06-01T01:16:34.540Z,7.73
2019-06-01T01:19:02.331Z,7.97
2019-06-01T01:21:31.786Z,7.60
2019-06-01T01:23:59.566Z,8.47
2019-06-01T01:26:27.336Z,8.37
2019-06-01T01:28:55.101Z,8.40
2019-06-01T01:31:22.854Z,8.37
2019-06-01T01:33:51.403Z,7.23
2019-06-01T01:36:19.300Z,8.70
2019-06-01T01:38:48.254Z,8.03
2019-06-01T01:41:16.241Z,8.00
2019-06-01T01:43:45.976Z,7.83
2019-06-01T01:46:13.677Z,8.90
2019-06-01T01:48:41.421Z,7.97
2019-06-01T01:51:09.259Z,8.37
2019-06-01T01:53:38.197Z,7.53
2019-06-01T01:56:05.971Z,7.90
2019-06-01T01:58:33.702Z,8.03
2019-06-01T02:01:20.861Z,7.83
2019-06-01T02:03:32.406Z,8.70
2019-06-01T02:06:00.188Z,7.73
2019-06-01T02:08:29.723Z,8.60
2019-06-01T02:10:57.567Z,9.33
2019-06-01T02:13:25.401Z,8.53
2019-06-01T02:15:54.116Z,8.97
2019-06-01T02:18:22.002Z,8.80
2019-06-01T02:20:49.794Z,8.40
2019-06-01T02:23:17.521Z,7.87
2019-06-01T02:25:45.261Z,8.70
2019-06-01T02:28:13.021Z,8.20
2019-06-01T02:30:40.773Z,8.03
2019-06-01T02:33:08.485Z,9.60
2019-06-01T02:35:36.258Z,8.50
2019-06-01T02:38:05.760Z,9.70
2019-06-01T02:40:35.590Z,8.10
2019-06-01T02:43:06.269Z,9.57
2019-06-01T02:45:33.432Z,8.93
2019-06-01T02:48:01.874Z,8.87
2019-06-01T02:50:31.017Z,8.47
2019-06-01T02:52:59.405Z,9.60
2019-06-01T02:55:27.308Z,8.10
2019-06-01T02:57:55.985Z,8.93
2019-06-01T03:01:21.458Z,9.03
2019-06-01T03:03:50.891Z,8.40
2019-06-01T03:06:19.664Z,9.37
2019-06-01T03:08:50.163Z,9.27
2019-06-01T03:11:22.064Z,9.63
2019-06-01T03:13:53.787Z,8.80
2019-06-01T03:16:24.014Z,9.47
2019-06-01T03:18:53.476Z,9.47
2019-06-01T03:21:22.391Z,8.97
2019-06-01T03:23:53.290Z,8.43
2019-06-01T03:26:23.932Z,8.63
2019-06-01T03:28:52.062Z,8.73
2019-06-01T03:31:19.912Z,8.97
2019-06-01T03:33:48.947Z,8.93
2019-06-01T03:36:17.339Z,9.23
2019-06-01T03:38:45.138Z,9.27
2019-06-01T03:41:12.869Z,9.30
2019-06-01T03:43:40.618Z,10.80
2019-06-01T03:46:08.747Z,9.13
2019-06-01T03:48:36.729Z,9.43
2019-06-01T03:51:05.596Z,10.20
2019-06-01T03:53:33.535Z,10.37
2019-06-01T03:56:02.006Z,9.47
2019-06-01T03:58:31.042Z,10.10
2019-06-01T04:00:58.872Z,10.40
2019-06-01T04:03:26.671Z,10.40
2019-06-01T04:05:54.471Z,9.47
2019-06-01T04:08:22.223Z,10.60
2019-06-01T04:10:51.162Z,9.80
2019-06-01T04:13:18.889Z,9.40
2019-06-01T04:15:46.920Z,10.10
2019-06-01T04:18:14.682Z,9.77
2019-06-01T04:20:42.445Z,9.60
2019-06-01T04:23:10.274Z,9.23
2019-06-01T04:25:38.559Z,9.30
2019-06-01T04:28:12.338Z,8.73
2019-06-01T04:30:40.575Z,9.20
2019-06-01T04:33:09.004Z,8.80
2019-06-01T04:35:36.908Z,9.60
2019-06-01T04:38:05.066Z,9.73
2019-06-01T04:40:33.029Z,8.47
2019-06-01T04:43:00.822Z,8.40
2019-06-01T04:45:28.606Z,8.70
2019-06-01T04:47:56.354Z,9.50
2019-06-01T04:50:24.102Z,9.90
2019-06-01T04:52:51.876Z,8.80
2019-06-01T04:55:19.640Z,9.30
2019-06-01T04:57:47.384Z,8.83
2019-06-01T05:00:25.692Z,9.67
2019-06-01T05:02:45.970Z,8.53
2019-06-01T05:05:15.179Z,8.90
2019-06-01T05:07:43.417Z,7.77
2019-06-01T05:10:11.657Z,8.77
2019-06-01T05:12:39.780Z,8.80
2019-06-01T05:15:09.778Z,8.43
2019-06-01T05:17:37.897Z,8.90
2019-06-01T05:20:08.173Z,8.53
2019-06-01T05:22:36.134Z,9.13
2019-06-01T05:25:04.145Z,7.83
2019-06-01T05:27:31.908Z,10.73
2019-06-01T05:29:59.664Z,8.30
2019-06-01T05:32:27.501Z,9.20
2019-06-01T05:34:55.253Z,8.10
2019-06-01T05:37:23.007Z,9.17
2019-06-01T05:39:50.764Z,8.60
2019-06-01T05:42:19.043Z,8.37
2019-06-01T05:44:46.925Z,8.80
2019-06-01T05:47:14.671Z,8.17
2019-06-01T05:49:42.424Z,8.53
2019-06-01T05:52:10.394Z,9.50
2019-06-01T05:54:38.279Z,8.20
2019-06-01T05:57:06.081Z,8.70
2019-06-01T05:59:33.952Z,7.90
2019-06-01T06:02:01.699Z,8.00
2019-06-01T06:04:29.467Z,7.73
2019-06-01T06:06:57.296Z,8.13
2019-06-01T06:09:25.061Z,8.50
2019-06-01T06:11:53.954Z,7.70
2019-06-01T06:14:22.619Z,7.60
2019-06-01T06:16:50.570Z,7.97
2019-06-01T06:19:21.113Z,8.50
2019-06-01T06:21:47.997Z,7.07
2019-06-01T06:24:16.381Z,7.27
2019-06-01T06:26:44.267Z,6.67
2019-06-01T06:29:12.751Z,9.13
2019-06-01T06:31:40.778Z,8.90
2019-06-01T06:34:08.507Z,7.20
2019-06-01T06:36:36.264Z,7.43
2019-06-01T06:39:06.404Z,6.60
2019-06-01T06:41:34.338Z,7.00
2019-06-01T06:44:02.096Z,7.47
2019-06-01T06:46:29.876Z,7.90
2019-06-01T06:48:57.673Z,6.30
2019-06-01T06:51:25.601Z,7.43
2019-06-01T06:53:53.440Z,6.83
2019-06-01T06:56:22.019Z,7.33
2019-06-01T06:58:49.973Z,7.23
2019-06-01T07:01:18.695Z,8.30
2019-06-01T07:03:46.556Z,7.50
2019-06-01T07:06:14.383Z,7.90
2019-06-01T07:08:42.275Z,7.77
2019-06-01T07:11:12.063Z,7.80
2019-06-01T07:13:39.717Z,7.33
2019-06-01T07:16:07.525Z,6.70
2019-06-01T07:18:35.259Z,6.50
2019-06-01T07:21:03.079Z,7.30
2019-06-01T07:23:32.005Z,7.90
2019-06-01T07:26:00.015Z,7.70
2019-06-01T07:28:29.712Z,6.70
2019-06-01T07:30:57.593Z,7.30
2019-06-01T07:33:26.451Z,7.10
2019-06-01T07:35:54.471Z,7.20
2019-06-01T07:38:22.306Z,7.30
2019-06-01T07:40:50.215Z,9.40
2019-06-01T07:43:18.029Z,7.80
2019-06-01T07:45:45.767Z,7.83
2019-06-01T07:48:13.552Z,7.70
2019-06-01T07:50:41.354Z,8.30
2019-06-01T07:53:09.113Z,7.20
2019-06-01T07:55:36.831Z,7.20
2019-06-01T07:58:04.707Z,7.63
2019-06-01T08:00:33.241Z,8.00
2019-06-01T08:03:01.118Z,6.93
2019-06-01T08:05:30.061Z,6.60
2019-06-01T08:07:58.073Z,6.57
2019-06-01T08:10:26.491Z,6.60
2019-06-01T08:13:14.988Z,7.30
2019-06-01T08:15:43.240Z,6.07
2019-06-01T08:18:11.040Z,7.10
2019-06-01T08:20:38.908Z,7.63
2019-06-01T08:23:06.763Z,6.30
2019-06-01T08:25:34.787Z,6.13
2019-06-01T08:28:03.039Z,5.47
2019-06-01T08:30:30.986Z,6.17
2019-06-01T08:32:58.797Z,5.20
2019-06-01T08:35:27.618Z,4.90
2019-06-01T08:37:55.424Z,5.43
2019-06-01T08:40:23.379Z,5.30
2019-06-01T08:42:53.095Z,4.90
2019-06-01T08:45:21.092Z,5.17
2019-06-01T08:47:48.879Z,3.80
2019-06-01T08:50:16.741Z,3.80
2019-06-01T08:52:44.622Z,4.80
2019-06-01T08:55:13.971Z,3.90
2019-06-01T08:57:41.714Z,4.80
2019-06-01T09:00:10.865Z,3.50
2019-06-01T09:02:38.663Z,3.93
2019-06-01T09:05:23.084Z,3.93
2019-06-01T09:07:37.428Z,4.43
2019-06-01T09:10:07.097Z,3.77
2019-06-01T09:12:35.716Z,4.00
2019-06-01T09:15:05.016Z,4.40
2019-06-01T09:17:33.476Z,3.67
2019-06-01T09:20:01.490Z,4.40
2019-06-01T09:22:29.479Z,3.90
2019-06-01T09:24:57.461Z,4.33
2019-06-01T09:27:28.147Z,4.00
2019-06-01T09:29:55.938Z,4.00
2019-06-01T09:32:23.808Z,4.20
2019-06-01T09:34:54.749Z,3.43
2019-06-01T09:37:22.564Z,3.40
2019-06-01T09:39:50.545Z,3.40
2019-06-01T09:42:18.336Z,3.60
2019-06-01T09:44:47.183Z,4.00
2019-06-01T09:47:16.148Z,3.57
2019-06-01T09:49:43.958Z,3.00
2019-06-01T09:52:12.667Z,3.57
2019-06-01T09:54:41.144Z,3.40
2019-06-01T09:57:08.964Z,3.10
2019-06-01T09:59:37.930Z,2.77
2019-06-01T10:02:06.006Z,3.17
2019-06-01T10:04:34.419Z,2.77
2019-06-01T10:07:02.307Z,3.10
2019-06-01T10:09:30.062Z,3.33
2019-06-01T10:11:57.987Z,3.20
2019-06-01T10:14:25.770Z,2.53
2019-06-01T10:16:53.541Z,2.40
2019-06-01T10:19:21.335Z,2.70
2019-06-01T10:21:49.097Z,3.00
2019-06-01T10:24:16.837Z,2.80
2019-06-01T10:26:44.690Z,2.80
2019-06-01T10:29:12.425Z,3.10
2019-06-01T10:31:41.638Z,2.90
2019-06-01T10:34:12.429Z,3.23
2019-06-01T10:36:40.346Z,3.00
2019-06-01T10:39:08.214Z,3.27
2019-06-01T10:41:37.497Z,3.10
2019-06-01T10:44:05.431Z,3.90
2019-06-01T10:46:33.935Z,3.03
2019-06-01T10:49:03.862Z,3.23
2019-06-01T10:51:32.087Z,3.13
2019-06-01T10:54:00.196Z,2.60
2019-06-01T10:56:30.452Z,3.03
2019-06-01T10:59:00.538Z,2.60
2019-06-01T11:01:27.933Z,2.70
2019-06-01T11:03:55.695Z,3.03
2019-06-01T11:06:36.654Z,2.80
2019-06-01T11:08:53.251Z,2.70
2019-06-01T11:11:22.121Z,3.03
2019-06-01T11:13:49.876Z,3.07
2019-06-01T11:16:17.905Z,3.03
2019-06-01T11:18:45.834Z,2.50
2019-06-01T11:21:15.243Z,2.90
2019-06-01T11:23:46.302Z,2.47
2019-06-01T11:26:12.819Z,2.60
2019-06-01T11:28:42.154Z,2.97
2019-06-01T11:31:11.809Z,2.70
2019-06-01T11:33:40.173Z,2.90
2019-06-01T11:36:10.199Z,2.37
2019-06-01T11:38:38.508Z,2.20
2019-06-01T11:41:06.828Z,2.63
2019-06-01T11:43:34.706Z,2.70
2019-06-01T11:46:02.473Z,2.77
2019-06-01T11:48:30.393Z,2.50
2019-06-01T11:50:59.325Z,2.60
2019-06-01T11:53:27.123Z,3.23
2019-06-01T11:55:58.840Z,2.47
2019-06-01T11:58:26.645Z,2.90
2019-06-01T12:00:54.467Z,3.00
2019-06-01T12:03:22.252Z,2.77
2019-06-01T12:05:50.011Z,2.67
2019-06-01T12:08:17.786Z,2.80
2019-06-01T12:10:45.592Z,2.77
2019-06-01T12:13:13.416Z,2.50
2019-06-01T12:15:42.275Z,2.10
2019-06-01T12:18:10.554Z,2.60
2019-06-01T12:20:38.648Z,2.40
2019-06-01T12:23:06.634Z,2.40
2019-06-01T12:25:34.438Z,2.83
2019-06-01T12:28:02.310Z,3.17
2019-06-01T12:30:30.090Z,2.37
2019-06-01T12:32:57.928Z,2.70
2019-06-01T12:35:25.751Z,2.40
2019-06-01T12:38:05.318Z,3.20
2019-06-01T12:40:24.127Z,1.90
2019-06-01T12:42:52.114Z,2.67
2019-06-01T12:45:22.812Z,2.60
2019-06-01T12:47:55.256Z,2.27
2019-06-01T12:50:25.805Z,2.13
2019-06-01T12:52:53.653Z,1.90
2019-06-01T12:55:23.247Z,2.47
2019-06-01T12:57:51.386Z,2.30
2019-06-01T13:00:19.635Z,2.10
2019-06-01T13:03:01.957Z,2.53
2019-06-01T13:05:19.181Z,2.40
2019-06-01T13:07:56.340Z,2.13
2019-06-01T13:10:17.035Z,2.30
2019-06-01T13:12:45.158Z,2.10
2019-06-01T13:15:15.510Z,2.43
2019-06-01T13:17:43.287Z,1.40
2019-06-01T13:20:11.385Z,1.83
2019-06-01T13:22:39.193Z,1.70
2019-06-01T13:25:07.241Z,1.83
2019-06-01T13:27:35.017Z,1.97
2019-06-01T13:30:04.270Z,2.00
2019-06-01T13:32:32.103Z,1.57
2019-06-01T13:34:59.903Z,1.47
2019-06-01T13:37:27.667Z,2.03
2019-06-01T13:39:58.117Z,1.70
2019-06-01T13:42:25.072Z,1.93
2019-06-01T13:44:53.652Z,1.33
2019-06-01T13:47:22.171Z,1.80
2019-06-01T13:49:50.169Z,2.10
2019-06-01T13:52:19.184Z,1.60
2019-06-01T13:54:46.939Z,1.97
2019-06-01T13:57:16.524Z,2.10
2019-06-01T14:00:01.905Z,1.50
2019-06-01T14:02:30.323Z,1.67
2019-06-01T14:05:02.784Z,2.43
2019-06-01T14:07:32.657Z,1.90
2019-06-01T14:10:04.930Z,4.17
2019-06-01T14:12:33.900Z,3.90
2019-06-01T14:15:02.527Z,3.20
2019-06-01T14:17:30.364Z,2.23
2019-06-01T14:20:05.953Z,1.97
2019-06-01T14:22:34.092Z,2.00
2019-06-01T14:25:12.362Z,1.83
2019-06-01T14:27:33.162Z,1.80
2019-06-01T14:30:01.004Z,2.10
2019-06-01T14:32:32.113Z,2.37
2019-06-01T14:35:00.329Z,2.30
2019-06-01T14:37:30.624Z,1.90
2019-06-01T14:39:58.411Z,1.90
2019-06-01T14:42:26.309Z,1.70
2019-06-01T14:44:54.069Z,1.80
2019-06-01T14:47:21.910Z,2.10
2019-06-01T14:49:49.748Z,2.03
2019-06-01T14:52:19.315Z,2.53
2019-06-01T14:54:56.472Z,2.10
2019-06-01T14:57:26.734Z,2.30
2019-06-01T14:59:56.049Z,2.13
2019-06-01T15:02:24.476Z,2.00
2019-06-01T15:04:56.946Z,2.73
2019-06-01T15:07:26.728Z,2.20
2019-06-01T15:09:54.957Z,2.10
2019-06-01T15:12:26.980Z,2.13
2019-06-01T15:14:55.524Z,2.70
2019-06-01T15:17:23.473Z,2.40
2019-06-01T15:19:51.890Z,2.37
2019-06-01T15:22:19.845Z,1.50
2019-06-01T15:24:47.608Z,1.93
2019-06-01T15:27:16.577Z,2.17
2019-06-01T15:29:44.349Z,2.23
2019-06-01T15:32:12.086Z,1.90
2019-06-01T15:34:39.845Z,2.30
2019-06-01T15:37:07.616Z,2.63
2019-06-01T15:39:35.511Z,2.90
2019-06-01T15:42:03.615Z,2.37
2019-06-01T15:44:31.472Z,2.33
2019-06-01T15:46:59.687Z,2.80
2019-06-01T15:49:27.697Z,2.90
2019-06-01T15:51:55.811Z,2.00
2019-06-01T15:54:24.021Z,1.87
2019-06-01T15:56:52.217Z,2.40
2019-06-01T15:59:30.789Z,2.10
2019-06-01T16:01:59.306Z,2.07
2019-06-01T16:04:27.267Z,2.30
2019-06-01T16:06:55.068Z,2.23
2019-06-01T16:09:22.828Z,1.90
2019-06-01T16:11:50.764Z,2.20
2019-06-01T16:14:18.531Z,2.23
2019-06-01T16:16:46.325Z,2.60
2019-06-01T16:19:14.101Z,3.53
2019-06-01T16:21:41.876Z,2.80
2019-06-01T16:24:09.722Z,2.60
2019-06-01T16:26:37.615Z,2.37
2019-06-01T16:29:05.520Z,2.33
2019-06-01T16:31:33.299Z,2.00
2019-06-01T16:34:03.289Z,2.27
2019-06-01T16:36:34.760Z,2.10
2019-06-01T16:39:08.080Z,2.87
2019-06-01T16:41:40.008Z,2.50
2019-06-01T16:44:11.394Z,1.83
2019-06-01T16:46:40.906Z,3.07
2019-06-01T16:49:14.330Z,1.70
2019-06-01T16:51:56.694Z,2.77
2019-06-01T16:54:25.119Z,2.20
2019-06-01T16:56:53.700Z,2.50
2019-06-01T16:59:21.730Z,2.83
2019-06-01T17:01:49.635Z,2.07
2019-06-01T17:04:18.549Z,1.70
2019-06-01T17:06:47.279Z,2.60
2019-06-01T17:09:19.725Z,2.77
2019-06-01T17:11:52.471Z,3.70
2019-06-01T17:14:23.863Z,10.70
2019-06-01T17:16:57.217Z,18.73
2019-06-01T17:19:30.948Z,19.50
2019-06-01T17:22:01.562Z,10.40
2019-06-01T17:24:31.977Z,24.67
2019-06-01T17:27:04.389Z,16.43
2019-06-01T17:29:36.250Z,29.83
2019-06-01T17:32:22.739Z,57.83
2019-06-01T17:34:39.651Z,13.80
2019-06-01T17:37:07.521Z,49.83
2019-06-01T17:39:43.274Z,13.20
2019-06-01T17:42:15.065Z,4.47
2019-06-01T17:44:47.631Z,8.10
2019-06-01T17:47:20.842Z,19.00
2019-06-01T17:49:57.249Z,11.03
2019-06-01T17:52:28.374Z,8.97
2019-06-01T17:55:07.298Z,10.17
2019-06-01T17:57:46.488Z,7.90
2019-06-01T18:00:17.411Z,10.50
2019-06-01T18:02:45.677Z,30.13
2019-06-01T18:05:15.797Z,7.83
2019-06-01T18:07:46.294Z,4.20
2019-06-01T18:10:16.990Z,28.07
2019-06-01T18:12:47.013Z,7.40
2019-06-01T18:15:17.700Z,5.70
2019-06-01T18:17:48.214Z,6.37
2019-06-01T18:20:16.974Z,20.10
2019-06-01T18:22:44.844Z,4.77
2019-06-01T18:25:21.679Z,5.50
2019-06-01T18:27:51.893Z,6.23
2019-06-01T18:30:24.258Z,7.33
2019-06-01T18:32:53.796Z,7.70
2019-06-01T18:35:23.585Z,4.53
2019-06-01T18:37:51.499Z,5.10
2019-06-01T18:40:23.492Z,5.93
2019-06-01T18:43:01.433Z,4.13
2019-06-01T18:45:31.062Z,4.20
2019-06-01T18:47:58.951Z,3.83
2019-06-01T18:50:26.762Z,4.30
2019-06-01T18:52:54.584Z,5.50
2019-06-01T18:55:22.340Z,4.00
2019-06-01T18:57:54.123Z,3.10
2019-06-01T19:00:21.946Z,5.90
2019-06-01T19:02:51.075Z,4.67
2019-06-01T19:05:19.018Z,4.17
2019-06-01T19:07:46.959Z,6.17
2019-06-01T19:10:16.398Z,4.77
2019-06-01T19:12:44.326Z,5.43
2019-06-01T19:15:27.829Z,5.30
2019-06-01T19:17:43.927Z,5.50
2019-06-01T19:20:15.268Z,5.23
2019-06-01T19:22:43.474Z,5.67
2019-06-01T19:25:13.215Z,5.00
2019-06-01T19:27:41.234Z,5.17
2019-06-01T19:30:10.841Z,6.23
2019-06-01T19:32:41.945Z,5.20
2019-06-01T19:35:11.544Z,6.43
2019-06-01T19:37:41.039Z,8.40
2019-06-01T19:40:11.379Z,5.73
2019-06-01T19:42:39.391Z,6.20
2019-06-01T19:45:18.434Z,10.63
2019-06-01T19:47:41.072Z,9.17
2019-06-01T19:50:10.352Z,6.87
2019-06-01T19:52:38.516Z,7.10
2019-06-01T19:55:06.768Z,7.37
2019-06-01T19:57:34.887Z,6.77
2019-06-01T20:00:02.950Z,7.10
2019-06-01T20:02:34.101Z,6.23
2019-06-01T20:05:00.649Z,6.70
2019-06-01T20:07:28.451Z,10.03
2019-06-01T20:09:56.257Z,9.50
2019-06-01T20:12:24.072Z,7.23
2019-06-01T20:14:51.836Z,6.20
2019-06-01T20:17:23.094Z,6.50
2019-06-01T20:19:49.306Z,6.57
2019-06-01T20:22:17.141Z,7.43
2019-06-01T20:24:44.946Z,7.67
2019-06-01T20:27:13.422Z,7.17
2019-06-01T20:29:41.582Z,9.60
2019-06-01T20:32:09.440Z,8.33
2019-06-01T20:34:37.266Z,11.03
2019-06-01T20:37:05.160Z,10.93
2019-06-01T20:39:32.905Z,10.60
2019-06-01T20:42:19.965Z,12.73
2019-06-01T20:44:30.862Z,11.90
2019-06-01T20:46:58.680Z,13.63
2019-06-01T20:49:26.458Z,16.73
2019-06-01T20:51:54.197Z,14.80
2019-06-01T20:54:23.207Z,15.50
2019-06-01T20:56:51.184Z,16.57
2019-06-01T20:59:21.116Z,22.57
2019-06-01T21:01:49.124Z,20.33
2019-06-01T21:04:18.081Z,19.43
2019-06-01T21:06:45.941Z,18.63
2019-06-01T21:09:13.859Z,17.90
2019-06-01T21:11:41.933Z,15.90
2019-06-01T21:14:09.744Z,18.77
2019-06-01T21:16:37.558Z,15.97
2019-06-01T21:19:05.318Z,19.50
2019-06-01T21:21:33.113Z,18.80
2019-06-01T21:24:00.905Z,18.30
2019-06-01T21:26:28.692Z,14.97
2019-06-01T21:28:56.495Z,14.40
2019-06-01T21:31:25.485Z,17.10
2019-06-01T21:33:53.367Z,14.70
2019-06-01T21:36:21.536Z,15.70
2019-06-01T21:38:49.409Z,16.60
2019-06-01T21:41:17.516Z,13.23
2019-06-01T21:43:45.452Z,12.43
2019-06-01T21:46:13.227Z,13.23
2019-06-01T21:48:41.039Z,12.47
2019-06-01T21:51:08.859Z,14.57
2019-06-01T21:53:36.686Z,13.97
2019-06-01T21:56:04.542Z,15.50
2019-06-01T21:58:32.318Z,13.87
2019-06-01T22:01:00.112Z,14.50
2019-06-01T22:03:27.882Z,13.60
2019-06-01T22:05:55.648Z,13.10
2019-06-01T22:08:23.426Z,14.43
2019-06-01T22:10:51.225Z,11.73
2019-06-01T22:13:22.307Z,11.10
2019-06-01T22:15:48.683Z,11.40
2019-06-01T22:18:17.602Z,10.80
2019-06-01T22:20:45.525Z,10.33
2019-06-01T22:23:13.291Z,10.17
2019-06-01T22:25:41.108Z,8.73
2019-06-01T22:28:08.816Z,9.57
2019-06-01T22:30:36.623Z,8.63
2019-06-01T22:33:04.434Z,8.97
2019-06-01T22:35:32.369Z,8.37
2019-06-01T22:38:00.152Z,7.60
2019-06-01T22:40:29.377Z,7.10
2019-06-01T22:42:57.291Z,7.53
2019-06-01T22:45:25.070Z,6.63
2019-06-01T22:47:52.844Z,6.90
2019-06-01T22:50:20.847Z,7.23
2019-06-01T22:52:48.703Z,7.63
2019-06-01T22:55:16.485Z,7.03
2019-06-01T22:57:44.232Z,7.80
2019-06-01T23:00:12.439Z,7.70
2019-06-01T23:02:40.165Z,7.60
2019-06-01T23:05:08.576Z,7.93
2019-06-01T23:07:36.289Z,7.97
2019-06-01T23:10:04.404Z,8.57
2019-06-01T23:12:32.162Z,11.20
2019-06-01T23:14:59.933Z,8.07
2019-06-01T23:17:28.014Z,8.20
2019-06-01T23:19:55.974Z,8.23
2019-06-01T23:22:23.985Z,8.97
2019-06-01T23:24:51.786Z,8.60
2019-06-01T23:27:19.539Z,8.33
2019-06-01T23:29:47.395Z,8.43
2019-06-01T23:32:15.146Z,8.60
2019-06-01T23:34:44.306Z,9.40
2019-06-01T23:37:12.070Z,8.80
2019-06-01T23:39:40.009Z,9.90
2019-06-01T23:42:07.891Z,8.63
2019-06-01T23:44:35.625Z,8.50
2019-06-01T23:47:03.394Z,9.60
2019-06-01T23:49:31.397Z,8.77
2019-06-01T23:51:59.269Z,8.07
2019-06-01T23:54:27.653Z,8.30
2019-06-01T23:56:55.587Z,8.30
2019-06-01T23:59:24.045Z,8.33
